sensor_id;sensor_type;location;lat;lon;timestamp;P1;durP1;ratioP1;P2;durP2;ratioP2
19923;SDS011;10124;53.068;18.224;2022-10-16T00:01:44;54.73;;;38.13;;
19923;SDS011;10124;53.068;18.224;2022-10-16T00:04:12;60.60;;;40.27;;
19923;SDS011;10124;53.068;18.224;2022-10-16T00:06:40;61.70;;;38.73;;
19923;SDS011;10124;53.068;18.224;2022-10-16T00:09:08;62.57;;;42.00;;
19923;SDS011;10124;53.068;18.224;2022-10-16T00:11:37;62.07;;;40.23;;
19923;SDS011;10124;53.068;18.224;2022-10-16T00:14:11;61.50;;;41.10;;
19923;SDS011;10124;53.068;18.224;2022-10-16T00:16:42;63.13;;;40.37;;
19923;SDS011;10124;53.068;18.224;2022-10-16T00:19:11;60.80;;;40.60;;
19923;SDS011;10124;53.068;18.224;2022-10-16T00:21:39;58.13;;;39.53;;
19923;SDS011;10124;53.068;18.224;2022-10-16T00:24:08;63.63;;;40.97;;
19923;SDS011;10124;53.068;18.224;2022-10-16T00:26:37;66.73;;;41.23;;
19923;SDS011;10124;53.068;18.224;2022-10-16T00:29:06;60.03;;;39.13;;
19923;SDS011;10124;53.068;18.224;2022-10-16T00:31:34;66.97;;;40.77;;
19923;SDS011;10124;53.068;18.224;2022-10-16T00:34:02;67.07;;;43.30;;
19923;SDS011;10124;53.068;18.224;2022-10-16T00:36:30;64.00;;;40.67;;
19923;SDS011;10124;53.068;18.224;2022-10-16T00:38:59;61.00;;;40.83;;
19923;SDS011;10124;53.068;18.224;2022-10-16T00:41:28;62.40;;;40.53;;
19923;SDS011;10124;53.068;18.224;2022-10-16T00:43:59;63.67;;;39.80;;
19923;SDS011;10124;53.068;18.224;2022-10-16T00:46:37;64.10;;;39.70;;
19923;SDS011;10124;53.068;18.224;2022-10-16T00:49:14;55.70;;;38.30;;
19923;SDS011;10124;53.068;18.224;2022-10-16T00:51:45;61.00;;;39.53;;
19923;SDS011;10124;53.068;18.224;2022-10-16T00:54:16;60.20;;;38.97;;
19923;SDS011;10124;53.068;18.224;2022-10-16T00:56:47;57.77;;;39.20;;
19923;SDS011;10124;53.068;18.224;2022-10-16T01:01:59;62.40;;;39.00;;
19923;SDS011;10124;53.068;18.224;2022-10-16T01:04:28;61.00;;;38.83;;
19923;SDS011;10124;53.068;18.224;2022-10-16T01:07:05;58.07;;;39.10;;
19923;SDS011;10124;53.068;18.224;2022-10-16T01:12:50;62.07;;;37.93;;
19923;SDS011;10124;53.068;18.224;2022-10-16T01:15:27;63.10;;;39.40;;
19923;SDS011;10124;53.068;18.224;2022-10-16T01:18:06;58.03;;;37.57;;
19923;SDS011;10124;53.068;18.224;2022-10-16T01:20:47;57.07;;;37.93;;
19923;SDS011;10124;53.068;18.224;2022-10-16T01:28:40;51.60;;;34.23;;
19923;SDS011;10124;53.068;18.224;2022-10-16T01:31:33;59.27;;;36.33;;
19923;SDS011;10124;53.068;18.224;2022-10-16T01:34:05;57.53;;;38.07;;
19923;SDS011;10124;53.068;18.224;2022-10-16T01:37:15;62.37;;;36.13;;
19923;SDS011;10124;53.068;18.224;2022-10-16T01:39:38;59.03;;;37.23;;
19923;SDS011;10124;53.068;18.224;2022-10-16T01:42:11;53.07;;;35.10;;
19923;SDS011;10124;53.068;18.224;2022-10-16T01:44:44;56.37;;;37.37;;
19923;SDS011;10124;53.068;18.224;2022-10-16T01:47:14;50.17;;;35.10;;
19923;SDS011;10124;53.068;18.224;2022-10-16T01:49:44;55.80;;;36.97;;
19923;SDS011;10124;53.068;18.224;2022-10-16T01:52:14;50.80;;;36.27;;
19923;SDS011;10124;53.068;18.224;2022-10-16T01:54:47;48.73;;;33.07;;
19923;SDS011;10124;53.068;18.224;2022-10-16T01:57:19;55.27;;;36.53;;
19923;SDS011;10124;53.068;18.224;2022-10-16T01:59:49;51.37;;;35.80;;
19923;SDS011;10124;53.068;18.224;2022-10-16T02:02:22;55.13;;;35.73;;
19923;SDS011;10124;53.068;18.224;2022-10-16T02:04:58;53.47;;;34.80;;
19923;SDS011;10124;53.068;18.224;2022-10-16T02:07:54;56.47;;;35.97;;
19923;SDS011;10124;53.068;18.224;2022-10-16T02:10:26;55.43;;;35.60;;
19923;SDS011;10124;53.068;18.224;2022-10-16T02:13:09;53.97;;;35.60;;
19923;SDS011;10124;53.068;18.224;2022-10-16T02:15:43;60.83;;;37.43;;
19923;SDS011;10124;53.068;18.224;2022-10-16T02:18:11;55.97;;;37.27;;
19923;SDS011;10124;53.068;18.224;2022-10-16T02:20:53;56.33;;;37.13;;
19923;SDS011;10124;53.068;18.224;2022-10-16T02:23:37;59.43;;;37.00;;
19923;SDS011;10124;53.068;18.224;2022-10-16T02:26:20;55.73;;;36.97;;
19923;SDS011;10124;53.068;18.224;2022-10-16T02:29:14;56.37;;;36.73;;
19923;SDS011;10124;53.068;18.224;2022-10-16T02:31:46;53.10;;;36.17;;
19923;SDS011;10124;53.068;18.224;2022-10-16T02:34:20;58.03;;;37.90;;
19923;SDS011;10124;53.068;18.224;2022-10-16T02:36:50;62.90;;;36.77;;
19923;SDS011;10124;53.068;18.224;2022-10-16T02:39:20;59.47;;;37.70;;
19923;SDS011;10124;53.068;18.224;2022-10-16T02:41:48;62.13;;;39.17;;
19923;SDS011;10124;53.068;18.224;2022-10-16T02:44:16;59.60;;;39.00;;
19923;SDS011;10124;53.068;18.224;2022-10-16T02:46:43;60.63;;;39.30;;
19923;SDS011;10124;53.068;18.224;2022-10-16T02:49:11;62.27;;;38.80;;
19923;SDS011;10124;53.068;18.224;2022-10-16T02:51:38;64.77;;;39.50;;
19923;SDS011;10124;53.068;18.224;2022-10-16T02:54:06;57.23;;;35.03;;
19923;SDS011;10124;53.068;18.224;2022-10-16T02:56:33;57.63;;;38.10;;
19923;SDS011;10124;53.068;18.224;2022-10-16T02:59:01;56.57;;;36.17;;
19923;SDS011;10124;53.068;18.224;2022-10-16T03:01:28;59.67;;;36.87;;
19923;SDS011;10124;53.068;18.224;2022-10-16T03:03:56;54.50;;;36.50;;
19923;SDS011;10124;53.068;18.224;2022-10-16T03:06:23;54.10;;;35.60;;
19923;SDS011;10124;53.068;18.224;2022-10-16T03:08:50;52.97;;;35.17;;
19923;SDS011;10124;53.068;18.224;2022-10-16T03:11:18;55.30;;;36.37;;
19923;SDS011;10124;53.068;18.224;2022-10-16T03:13:45;53.97;;;34.40;;
19923;SDS011;10124;53.068;18.224;2022-10-16T03:16:13;55.73;;;37.03;;
19923;SDS011;10124;53.068;18.224;2022-10-16T03:18:41;50.00;;;35.13;;
19923;SDS011;10124;53.068;18.224;2022-10-16T03:21:08;52.93;;;34.40;;
19923;SDS011;10124;53.068;18.224;2022-10-16T03:23:35;54.80;;;36.07;;
19923;SDS011;10124;53.068;18.224;2022-10-16T03:26:03;51.97;;;32.73;;
19923;SDS011;10124;53.068;18.224;2022-10-16T03:28:31;53.40;;;33.83;;
19923;SDS011;10124;53.068;18.224;2022-10-16T03:30:59;50.87;;;34.70;;
19923;SDS011;10124;53.068;18.224;2022-10-16T03:33:27;50.23;;;32.90;;
19923;SDS011;10124;53.068;18.224;2022-10-16T03:35:55;50.90;;;33.03;;
19923;SDS011;10124;53.068;18.224;2022-10-16T03:38:25;51.60;;;34.23;;
19923;SDS011;10124;53.068;18.224;2022-10-16T03:40:53;53.03;;;32.67;;
19923;SDS011;10124;53.068;18.224;2022-10-16T03:43:20;54.33;;;34.70;;
19923;SDS011;10124;53.068;18.224;2022-10-16T03:45:49;52.47;;;35.10;;
19923;SDS011;10124;53.068;18.224;2022-10-16T03:48:20;49.40;;;32.73;;
19923;SDS011;10124;53.068;18.224;2022-10-16T03:50:48;47.87;;;33.03;;
19923;SDS011;10124;53.068;18.224;2022-10-16T03:53:15;50.27;;;33.30;;
19923;SDS011;10124;53.068;18.224;2022-10-16T03:55:43;43.80;;;31.60;;
19923;SDS011;10124;53.068;18.224;2022-10-16T03:58:11;45.77;;;32.37;;
19923;SDS011;10124;53.068;18.224;2022-10-16T04:00:40;50.77;;;32.33;;
19923;SDS011;10124;53.068;18.224;2022-10-16T04:03:09;49.93;;;32.97;;
19923;SDS011;10124;53.068;18.224;2022-10-16T04:05:36;51.33;;;33.17;;
19923;SDS011;10124;53.068;18.224;2022-10-16T04:08:04;48.43;;;32.43;;
19923;SDS011;10124;53.068;18.224;2022-10-16T04:10:32;50.57;;;33.20;;
19923;SDS011;10124;53.068;18.224;2022-10-16T04:13:00;46.83;;;32.50;;
19923;SDS011;10124;53.068;18.224;2022-10-16T04:15:27;48.80;;;34.07;;
19923;SDS011;10124;53.068;18.224;2022-10-16T04:17:55;48.50;;;32.70;;
19923;SDS011;10124;53.068;18.224;2022-10-16T04:20:22;48.63;;;33.47;;
19923;SDS011;10124;53.068;18.224;2022-10-16T04:22:50;46.63;;;33.13;;
19923;SDS011;10124;53.068;18.224;2022-10-16T04:25:17;45.57;;;33.20;;
19923;SDS011;10124;53.068;18.224;2022-10-16T04:27:45;48.97;;;31.20;;
19923;SDS011;10124;53.068;18.224;2022-10-16T04:30:14;50.53;;;32.27;;
19923;SDS011;10124;53.068;18.224;2022-10-16T04:32:42;46.47;;;31.40;;
19923;SDS011;10124;53.068;18.224;2022-10-16T04:35:09;47.00;;;31.37;;
19923;SDS011;10124;53.068;18.224;2022-10-16T04:37:37;52.03;;;32.70;;
19923;SDS011;10124;53.068;18.224;2022-10-16T04:40:05;47.97;;;31.93;;
19923;SDS011;10124;53.068;18.224;2022-10-16T04:42:34;45.60;;;31.70;;
19923;SDS011;10124;53.068;18.224;2022-10-16T04:45:01;50.80;;;30.73;;
19923;SDS011;10124;53.068;18.224;2022-10-16T04:47:30;48.37;;;32.37;;
19923;SDS011;10124;53.068;18.224;2022-10-16T04:49:57;47.23;;;31.07;;
19923;SDS011;10124;53.068;18.224;2022-10-16T04:52:29;46.47;;;31.83;;
19923;SDS011;10124;53.068;18.224;2022-10-16T04:54:58;47.83;;;30.40;;
19923;SDS011;10124;53.068;18.224;2022-10-16T04:57:29;45.23;;;30.67;;
19923;SDS011;10124;53.068;18.224;2022-10-16T04:59:57;45.17;;;31.50;;
19923;SDS011;10124;53.068;18.224;2022-10-16T05:02:24;45.73;;;31.80;;
19923;SDS011;10124;53.068;18.224;2022-10-16T05:04:52;43.43;;;30.13;;
19923;SDS011;10124;53.068;18.224;2022-10-16T05:07:19;40.63;;;29.77;;
19923;SDS011;10124;53.068;18.224;2022-10-16T05:09:47;38.73;;;28.80;;
19923;SDS011;10124;53.068;18.224;2022-10-16T05:12:15;44.20;;;30.27;;
19923;SDS011;10124;53.068;18.224;2022-10-16T05:14:42;40.13;;;29.37;;
19923;SDS011;10124;53.068;18.224;2022-10-16T05:17:10;41.77;;;29.40;;
19923;SDS011;10124;53.068;18.224;2022-10-16T05:19:37;41.20;;;29.07;;
19923;SDS011;10124;53.068;18.224;2022-10-16T05:22:05;41.97;;;29.10;;
19923;SDS011;10124;53.068;18.224;2022-10-16T05:24:32;43.23;;;30.40;;
19923;SDS011;10124;53.068;18.224;2022-10-16T05:27:01;43.70;;;29.37;;
19923;SDS011;10124;53.068;18.224;2022-10-16T05:29:29;47.87;;;28.73;;
19923;SDS011;10124;53.068;18.224;2022-10-16T05:31:57;47.37;;;31.67;;
19923;SDS011;10124;53.068;18.224;2022-10-16T05:34:25;46.33;;;29.00;;
19923;SDS011;10124;53.068;18.224;2022-10-16T05:36:55;44.70;;;30.93;;
19923;SDS011;10124;53.068;18.224;2022-10-16T05:39:24;43.80;;;30.97;;
19923;SDS011;10124;53.068;18.224;2022-10-16T05:41:52;40.77;;;29.73;;
19923;SDS011;10124;53.068;18.224;2022-10-16T05:44:20;43.77;;;30.37;;
19923;SDS011;10124;53.068;18.224;2022-10-16T05:46:48;45.33;;;30.83;;
19923;SDS011;10124;53.068;18.224;2022-10-16T05:49:15;51.77;;;30.93;;
19923;SDS011;10124;53.068;18.224;2022-10-16T05:51:43;43.17;;;30.73;;
19923;SDS011;10124;53.068;18.224;2022-10-16T05:54:11;45.67;;;30.90;;
19923;SDS011;10124;53.068;18.224;2022-10-16T05:56:39;43.23;;;28.87;;
19923;SDS011;10124;53.068;18.224;2022-10-16T05:59:06;44.83;;;29.30;;
19923;SDS011;10124;53.068;18.224;2022-10-16T06:01:34;44.83;;;33.00;;
19923;SDS011;10124;53.068;18.224;2022-10-16T06:04:02;43.47;;;31.10;;
19923;SDS011;10124;53.068;18.224;2022-10-16T06:06:29;45.23;;;30.83;;
19923;SDS011;10124;53.068;18.224;2022-10-16T06:08:57;40.10;;;29.90;;
19923;SDS011;10124;53.068;18.224;2022-10-16T06:11:28;41.67;;;29.40;;
19923;SDS011;10124;53.068;18.224;2022-10-16T06:13:58;41.43;;;29.40;;
19923;SDS011;10124;53.068;18.224;2022-10-16T06:16:29;38.80;;;27.83;;
19923;SDS011;10124;53.068;18.224;2022-10-16T06:18:57;36.67;;;27.47;;
19923;SDS011;10124;53.068;18.224;2022-10-16T06:21:27;40.03;;;27.03;;
19923;SDS011;10124;53.068;18.224;2022-10-16T06:23:57;38.47;;;26.80;;
19923;SDS011;10124;53.068;18.224;2022-10-16T06:26:26;33.63;;;24.43;;
19923;SDS011;10124;53.068;18.224;2022-10-16T06:28:57;33.63;;;24.07;;
19923;SDS011;10124;53.068;18.224;2022-10-16T06:31:27;29.57;;;22.87;;
19923;SDS011;10124;53.068;18.224;2022-10-16T06:33:57;34.03;;;23.47;;
19923;SDS011;10124;53.068;18.224;2022-10-16T06:36:26;32.22;;;22.98;;
19923;SDS011;10124;53.068;18.224;2022-10-16T06:38:54;32.28;;;22.20;;
19923;SDS011;10124;53.068;18.224;2022-10-16T06:41:22;31.85;;;22.42;;
19923;SDS011;10124;53.068;18.224;2022-10-16T06:43:50;32.87;;;22.37;;
19923;SDS011;10124;53.068;18.224;2022-10-16T06:46:20;28.33;;;22.80;;
19923;SDS011;10124;53.068;18.224;2022-10-16T06:48:49;32.07;;;21.87;;
19923;SDS011;10124;53.068;18.224;2022-10-16T06:51:17;27.25;;;21.30;;
19923;SDS011;10124;53.068;18.224;2022-10-16T06:53:50;33.58;;;21.88;;
19923;SDS011;10124;53.068;18.224;2022-10-16T06:56:32;29.15;;;21.23;;
19923;SDS011;10124;53.068;18.224;2022-10-16T06:59:00;28.83;;;21.00;;
19923;SDS011;10124;53.068;18.224;2022-10-16T07:01:29;27.65;;;19.95;;
19923;SDS011;10124;53.068;18.224;2022-10-16T07:03:57;27.60;;;19.90;;
19923;SDS011;10124;53.068;18.224;2022-10-16T07:06:25;28.33;;;19.13;;
19923;SDS011;10124;53.068;18.224;2022-10-16T07:08:54;24.85;;;19.27;;
19923;SDS011;10124;53.068;18.224;2022-10-16T07:11:23;23.02;;;17.42;;
19923;SDS011;10124;53.068;18.224;2022-10-16T07:13:51;24.73;;;19.35;;
19923;SDS011;10124;53.068;18.224;2022-10-16T07:16:26;21.52;;;17.70;;
19923;SDS011;10124;53.068;18.224;2022-10-16T07:18:56;24.98;;;16.95;;
19923;SDS011;10124;53.068;18.224;2022-10-16T07:21:29;28.75;;;18.63;;
19923;SDS011;10124;53.068;18.224;2022-10-16T07:24:03;19.92;;;15.50;;
19923;SDS011;10124;53.068;18.224;2022-10-16T07:26:34;23.50;;;16.63;;
19923;SDS011;10124;53.068;18.224;2022-10-16T07:29:02;21.08;;;16.55;;
19923;SDS011;10124;53.068;18.224;2022-10-16T07:31:31;20.48;;;15.27;;
19923;SDS011;10124;53.068;18.224;2022-10-16T07:33:59;23.90;;;15.25;;
19923;SDS011;10124;53.068;18.224;2022-10-16T07:36:28;17.05;;;13.80;;
19923;SDS011;10124;53.068;18.224;2022-10-16T07:38:55;16.55;;;13.43;;
19923;SDS011;10124;53.068;18.224;2022-10-16T07:41:27;16.40;;;13.48;;
19923;SDS011;10124;53.068;18.224;2022-10-16T07:43:55;16.88;;;12.68;;
19923;SDS011;10124;53.068;18.224;2022-10-16T07:46:27;17.25;;;13.20;;
19923;SDS011;10124;53.068;18.224;2022-10-16T07:48:56;14.13;;;12.38;;
19923;SDS011;10124;53.068;18.224;2022-10-16T07:51:25;18.42;;;12.77;;
19923;SDS011;10124;53.068;18.224;2022-10-16T07:53:53;17.77;;;12.85;;
19923;SDS011;10124;53.068;18.224;2022-10-16T07:56:21;15.52;;;12.52;;
19923;SDS011;10124;53.068;18.224;2022-10-16T07:58:49;15.65;;;12.43;;
19923;SDS011;10124;53.068;18.224;2022-10-16T08:01:18;13.52;;;11.52;;
19923;SDS011;10124;53.068;18.224;2022-10-16T08:03:48;18.60;;;12.68;;
19923;SDS011;10124;53.068;18.224;2022-10-16T08:06:18;15.68;;;11.85;;
19923;SDS011;10124;53.068;18.224;2022-10-16T08:08:54;13.75;;;11.20;;
19923;SDS011;10124;53.068;18.224;2022-10-16T08:11:23;16.35;;;12.18;;
19923;SDS011;10124;53.068;18.224;2022-10-16T08:13:51;14.18;;;10.93;;
19923;SDS011;10124;53.068;18.224;2022-10-16T08:16:19;15.90;;;11.13;;
19923;SDS011;10124;53.068;18.224;2022-10-16T08:18:46;12.57;;;10.02;;
19923;SDS011;10124;53.068;18.224;2022-10-16T08:21:16;15.85;;;11.05;;
19923;SDS011;10124;53.068;18.224;2022-10-16T08:23:47;17.40;;;9.55;;
19923;SDS011;10124;53.068;18.224;2022-10-16T08:26:24;12.43;;;10.73;;
19923;SDS011;10124;53.068;18.224;2022-10-16T08:28:54;14.70;;;10.57;;
19923;SDS011;10124;53.068;18.224;2022-10-16T08:31:26;12.57;;;9.65;;
19923;SDS011;10124;53.068;18.224;2022-10-16T08:33:54;12.40;;;9.30;;
19923;SDS011;10124;53.068;18.224;2022-10-16T08:36:22;11.60;;;8.82;;
19923;SDS011;10124;53.068;18.224;2022-10-16T08:38:50;11.13;;;9.30;;
19923;SDS011;10124;53.068;18.224;2022-10-16T08:47:15;10.15;;;7.68;;
19923;SDS011;10124;53.068;18.224;2022-10-16T08:50:32;11.48;;;7.40;;
19923;SDS011;10124;53.068;18.224;2022-10-16T08:52:39;9.55;;;6.63;;
19923;SDS011;10124;53.068;18.224;2022-10-16T08:58:12;8.80;;;6.53;;
19923;SDS011;10124;53.068;18.224;2022-10-16T09:00:49;7.88;;;6.80;;
19923;SDS011;10124;53.068;18.224;2022-10-16T09:03:44;21.05;;;7.53;;
19923;SDS011;10124;53.068;18.224;2022-10-16T09:09:31;8.93;;;7.72;;
19923;SDS011;10124;53.068;18.224;2022-10-16T09:14:52;10.93;;;7.10;;
19923;SDS011;10124;53.068;18.224;2022-10-16T09:20:18;11.38;;;7.82;;
19923;SDS011;10124;53.068;18.224;2022-10-16T09:23:09;9.60;;;7.88;;
19923;SDS011;10124;53.068;18.224;2022-10-16T09:25:43;9.25;;;7.80;;
19923;SDS011;10124;53.068;18.224;2022-10-16T09:28:15;9.27;;;6.68;;
19923;SDS011;10124;53.068;18.224;2022-10-16T09:30:44;19.33;;;8.38;;
19923;SDS011;10124;53.068;18.224;2022-10-16T09:33:13;9.27;;;7.40;;
19923;SDS011;10124;53.068;18.224;2022-10-16T09:35:45;17.05;;;7.45;;
19923;SDS011;10124;53.068;18.224;2022-10-16T09:38:25;10.48;;;7.93;;
19923;SDS011;10124;53.068;18.224;2022-10-16T09:40:56;13.45;;;7.22;;
19923;SDS011;10124;53.068;18.224;2022-10-16T09:43:38;8.18;;;6.88;;
19923;SDS011;10124;53.068;18.224;2022-10-16T09:46:19;9.63;;;7.38;;
19923;SDS011;10124;53.068;18.224;2022-10-16T09:48:51;8.30;;;6.70;;
19923;SDS011;10124;53.068;18.224;2022-10-16T09:51:25;8.48;;;6.93;;
19923;SDS011;10124;53.068;18.224;2022-10-16T09:53:58;12.65;;;7.28;;
19923;SDS011;10124;53.068;18.224;2022-10-16T09:56:36;13.57;;;6.35;;
19923;SDS011;10124;53.068;18.224;2022-10-16T09:59:14;7.50;;;5.70;;
19923;SDS011;10124;53.068;18.224;2022-10-16T10:04:13;9.20;;;6.00;;
19923;SDS011;10124;53.068;18.224;2022-10-16T10:06:43;8.10;;;6.28;;
19923;SDS011;10124;53.068;18.224;2022-10-16T10:11:58;6.82;;;5.97;;
19923;SDS011;10124;53.068;18.224;2022-10-16T10:14:39;8.13;;;5.65;;
19923;SDS011;10124;53.068;18.224;2022-10-16T10:17:13;5.80;;;5.22;;
19923;SDS011;10124;53.068;18.224;2022-10-16T10:22:49;6.53;;;5.18;;
19923;SDS011;10124;53.068;18.224;2022-10-16T10:25:24;7.32;;;4.75;;
19923;SDS011;10124;53.068;18.224;2022-10-16T10:44:19;9.18;;;5.45;;
19923;SDS011;10124;53.068;18.224;2022-10-16T10:50:07;8.35;;;5.15;;
19923;SDS011;10124;53.068;18.224;2022-10-16T10:55:36;6.38;;;5.13;;
19923;SDS011;10124;53.068;18.224;2022-10-16T10:58:35;7.63;;;5.30;;
19923;SDS011;10124;53.068;18.224;2022-10-16T11:07:17;6.40;;;5.28;;
19923;SDS011;10124;53.068;18.224;2022-10-16T11:09:51;8.85;;;5.30;;
19923;SDS011;10124;53.068;18.224;2022-10-16T11:12:27;7.22;;;5.18;;
19923;SDS011;10124;53.068;18.224;2022-10-16T11:15:14;7.93;;;5.28;;
19923;SDS011;10124;53.068;18.224;2022-10-16T11:18:03;7.47;;;5.75;;
19923;SDS011;10124;53.068;18.224;2022-10-16T11:20:37;7.47;;;5.05;;
19923;SDS011;10124;53.068;18.224;2022-10-16T11:23:28;5.85;;;5.07;;
19923;SDS011;10124;53.068;18.224;2022-10-16T11:26:13;6.97;;;4.85;;
19923;SDS011;10124;53.068;18.224;2022-10-16T11:28:51;7.63;;;5.43;;
19923;SDS011;10124;53.068;18.224;2022-10-16T11:31:31;20.98;;;5.25;;
19923;SDS011;10124;53.068;18.224;2022-10-16T11:40:19;4.93;;;4.25;;
19923;SDS011;10124;53.068;18.224;2022-10-16T11:43:22;9.52;;;5.72;;
19923;SDS011;10124;53.068;18.224;2022-10-16T11:46:13;7.22;;;5.28;;
19923;SDS011;10124;53.068;18.224;2022-10-16T11:51:45;9.68;;;5.03;;
19923;SDS011;10124;53.068;18.224;2022-10-16T11:57:13;14.05;;;5.60;;
19923;SDS011;10124;53.068;18.224;2022-10-16T11:59:49;6.72;;;5.10;;
19923;SDS011;10124;53.068;18.224;2022-10-16T12:07:35;10.43;;;5.25;;
19923;SDS011;10124;53.068;18.224;2022-10-16T12:10:10;5.90;;;4.95;;
19923;SDS011;10124;53.068;18.224;2022-10-16T12:12:52;12.32;;;7.70;;
19923;SDS011;10124;53.068;18.224;2022-10-16T12:15:21;9.65;;;6.18;;
19923;SDS011;10124;53.068;18.224;2022-10-16T12:18:23;15.18;;;4.90;;
19923;SDS011;10124;53.068;18.224;2022-10-16T12:20:57;10.43;;;6.28;;
19923;SDS011;10124;53.068;18.224;2022-10-16T12:23:38;7.82;;;6.18;;
19923;SDS011;10124;53.068;18.224;2022-10-16T12:26:23;6.60;;;5.70;;
19923;SDS011;10124;53.068;18.224;2022-10-16T12:31:44;7.03;;;5.78;;
19923;SDS011;10124;53.068;18.224;2022-10-16T12:34:37;13.52;;;6.38;;
19923;SDS011;10124;53.068;18.224;2022-10-16T12:37:08;7.15;;;5.43;;
19923;SDS011;10124;53.068;18.224;2022-10-16T12:39:48;7.75;;;5.65;;
19923;SDS011;10124;53.068;18.224;2022-10-16T12:44:54;8.70;;;5.78;;
19923;SDS011;10124;53.068;18.224;2022-10-16T12:49:59;7.80;;;6.03;;
19923;SDS011;10124;53.068;18.224;2022-10-16T12:52:36;9.25;;;5.13;;
19923;SDS011;10124;53.068;18.224;2022-10-16T12:55:05;10.27;;;5.57;;
19923;SDS011;10124;53.068;18.224;2022-10-16T13:00:50;7.18;;;5.47;;
19923;SDS011;10124;53.068;18.224;2022-10-16T13:06:09;11.68;;;6.70;;
19923;SDS011;10124;53.068;18.224;2022-10-16T13:12:01;9.07;;;5.40;;
19923;SDS011;10124;53.068;18.224;2022-10-16T13:17:49;9.10;;;5.35;;
19923;SDS011;10124;53.068;18.224;2022-10-16T13:23:23;6.53;;;4.80;;
19923;SDS011;10124;53.068;18.224;2022-10-16T13:28:49;9.38;;;5.43;;
19923;SDS011;10124;53.068;18.224;2022-10-16T13:31:17;10.43;;;5.95;;
19923;SDS011;10124;53.068;18.224;2022-10-16T13:33:49;7.80;;;5.00;;
19923;SDS011;10124;53.068;18.224;2022-10-16T13:36:22;7.05;;;4.95;;
19923;SDS011;10124;53.068;18.224;2022-10-16T13:39:09;17.77;;;5.60;;
19923;SDS011;10124;53.068;18.224;2022-10-16T13:41:44;9.00;;;4.78;;
19923;SDS011;10124;53.068;18.224;2022-10-16T13:44:17;7.20;;;5.43;;
19923;SDS011;10124;53.068;18.224;2022-10-16T13:46:46;7.55;;;4.85;;
19923;SDS011;10124;53.068;18.224;2022-10-16T13:49:24;10.95;;;4.75;;
19923;SDS011;10124;53.068;18.224;2022-10-16T13:51:56;7.68;;;4.82;;
19923;SDS011;10124;53.068;18.224;2022-10-16T13:54:25;8.43;;;4.38;;
19923;SDS011;10124;53.068;18.224;2022-10-16T13:56:55;6.00;;;4.57;;
19923;SDS011;10124;53.068;18.224;2022-10-16T13:59:35;9.40;;;5.00;;
19923;SDS011;10124;53.068;18.224;2022-10-16T14:04:55;5.90;;;4.97;;
19923;SDS011;10124;53.068;18.224;2022-10-16T14:07:25;9.35;;;4.75;;
19923;SDS011;10124;53.068;18.224;2022-10-16T14:09:55;5.70;;;4.93;;
19923;SDS011;10124;53.068;18.224;2022-10-16T14:12:26;12.90;;;8.30;;
19923;SDS011;10124;53.068;18.224;2022-10-16T14:14:54;9.35;;;6.28;;
19923;SDS011;10124;53.068;18.224;2022-10-16T14:17:24;22.13;;;5.82;;
19923;SDS011;10124;53.068;18.224;2022-10-16T14:19:58;7.72;;;5.10;;
19923;SDS011;10124;53.068;18.224;2022-10-16T14:22:35;6.43;;;5.28;;
19923;SDS011;10124;53.068;18.224;2022-10-16T14:28:03;7.45;;;5.05;;
19923;SDS011;10124;53.068;18.224;2022-10-16T14:30:54;9.73;;;5.03;;
19923;SDS011;10124;53.068;18.224;2022-10-16T14:33:25;9.45;;;5.20;;
19923;SDS011;10124;53.068;18.224;2022-10-16T14:36:03;6.60;;;5.05;;
19923;SDS011;10124;53.068;18.224;2022-10-16T14:38:38;8.90;;;5.30;;
19923;SDS011;10124;53.068;18.224;2022-10-16T14:41:07;5.57;;;4.68;;
19923;SDS011;10124;53.068;18.224;2022-10-16T14:43:42;11.02;;;5.22;;
19923;SDS011;10124;53.068;18.224;2022-10-16T14:46:19;8.18;;;5.30;;
19923;SDS011;10124;53.068;18.224;2022-10-16T14:48:49;8.50;;;4.75;;
19923;SDS011;10124;53.068;18.224;2022-10-16T14:51:19;9.80;;;5.03;;
19923;SDS011;10124;53.068;18.224;2022-10-16T14:53:47;10.75;;;7.90;;
19923;SDS011;10124;53.068;18.224;2022-10-16T14:56:16;12.52;;;6.57;;
19923;SDS011;10124;53.068;18.224;2022-10-16T14:58:46;8.27;;;5.38;;
19923;SDS011;10124;53.068;18.224;2022-10-16T15:01:14;6.72;;;4.70;;
19923;SDS011;10124;53.068;18.224;2022-10-16T15:03:42;9.18;;;5.38;;
19923;SDS011;10124;53.068;18.224;2022-10-16T15:06:11;8.77;;;4.38;;
19923;SDS011;10124;53.068;18.224;2022-10-16T15:08:40;11.40;;;5.20;;
19923;SDS011;10124;53.068;18.224;2022-10-16T15:11:10;6.43;;;4.80;;
19923;SDS011;10124;53.068;18.224;2022-10-16T15:13:46;8.88;;;5.55;;
19923;SDS011;10124;53.068;18.224;2022-10-16T15:16:14;8.93;;;5.63;;
19923;SDS011;10124;53.068;18.224;2022-10-16T15:18:43;10.20;;;8.82;;
19923;SDS011;10124;53.068;18.224;2022-10-16T15:21:16;7.50;;;5.90;;
19923;SDS011;10124;53.068;18.224;2022-10-16T15:23:51;6.88;;;5.60;;
19923;SDS011;10124;53.068;18.224;2022-10-16T15:26:18;6.70;;;5.13;;
19923;SDS011;10124;53.068;18.224;2022-10-16T15:28:46;7.03;;;5.50;;
19923;SDS011;10124;53.068;18.224;2022-10-16T15:31:13;8.68;;;6.28;;
19923;SDS011;10124;53.068;18.224;2022-10-16T15:33:41;5.80;;;5.18;;
19923;SDS011;10124;53.068;18.224;2022-10-16T15:36:09;9.65;;;6.70;;
19923;SDS011;10124;53.068;18.224;2022-10-16T15:38:37;9.90;;;6.22;;
19923;SDS011;10124;53.068;18.224;2022-10-16T15:41:05;6.75;;;5.68;;
19923;SDS011;10124;53.068;18.224;2022-10-16T15:43:32;11.70;;;6.88;;
19923;SDS011;10124;53.068;18.224;2022-10-16T15:46:04;10.07;;;6.97;;
19923;SDS011;10124;53.068;18.224;2022-10-16T15:48:35;8.85;;;6.75;;
19923;SDS011;10124;53.068;18.224;2022-10-16T15:51:04;9.73;;;6.75;;
19923;SDS011;10124;53.068;18.224;2022-10-16T15:53:33;8.32;;;7.00;;
19923;SDS011;10124;53.068;18.224;2022-10-16T15:56:02;11.88;;;6.95;;
19923;SDS011;10124;53.068;18.224;2022-10-16T15:58:30;7.18;;;6.43;;
19923;SDS011;10124;53.068;18.224;2022-10-16T16:00:58;10.10;;;7.10;;
19923;SDS011;10124;53.068;18.224;2022-10-16T16:03:29;13.13;;;7.15;;
19923;SDS011;10124;53.068;18.224;2022-10-16T16:05:57;12.80;;;6.70;;
19923;SDS011;10124;53.068;18.224;2022-10-16T16:08:25;15.77;;;8.05;;
19923;SDS011;10124;53.068;18.224;2022-10-16T16:10:59;9.23;;;6.97;;
19923;SDS011;10124;53.068;18.224;2022-10-16T16:13:32;15.75;;;7.38;;
19923;SDS011;10124;53.068;18.224;2022-10-16T16:16:00;13.35;;;7.38;;
19923;SDS011;10124;53.068;18.224;2022-10-16T16:18:28;20.02;;;8.48;;
19923;SDS011;10124;53.068;18.224;2022-10-16T16:20:56;12.00;;;8.35;;
19923;SDS011;10124;53.068;18.224;2022-10-16T16:23:24;20.38;;;8.15;;
19923;SDS011;10124;53.068;18.224;2022-10-16T16:28:47;17.30;;;8.57;;
19923;SDS011;10124;53.068;18.224;2022-10-16T16:31:14;17.23;;;8.40;;
19923;SDS011;10124;53.068;18.224;2022-10-16T16:33:42;12.80;;;9.45;;
19923;SDS011;10124;53.068;18.224;2022-10-16T16:36:10;14.38;;;8.98;;
19923;SDS011;10124;53.068;18.224;2022-10-16T16:38:41;16.00;;;8.70;;
19923;SDS011;10124;53.068;18.224;2022-10-16T16:41:16;12.18;;;9.02;;
19923;SDS011;10124;53.068;18.224;2022-10-16T16:43:45;13.50;;;10.18;;